Terminal Aerodrome Forecast
Issued by NWS

Home | Current Version | Previous Version | Graphics & Text | Print | Product List | Glossary On
Versions: 1 2 3 4 5 6 7 8 9 10 11 12 13 14 15 16 17 18
000
FTUS43 KIWX 212000 AAA
TAFSBN
TAF AMD
KSBN 212020Z 2120/2218 35013KT P6SM BKN025 OVC035
     FM212300 02009KT P6SM SCT035
     FM220300 06003KT P6SM SKC=

USA.gov is the U.S. government's official web portal to all federal, state and local government web resources and services.